createdAt,value
2022-12-23T00:01:25.552Z,100372.47
2022-12-23T00:03:58.093Z,100373.94
2022-12-23T00:06:26.775Z,100378.34
2022-12-23T00:08:58.622Z,100385.09
2022-12-23T00:11:29.746Z,100379.56
2022-12-23T00:14:21.010Z,100382.22
2022-12-23T00:16:50.904Z,100377.63
2022-12-23T00:19:21.170Z,100370.75
2022-12-23T00:21:49.864Z,100371.75
2022-12-23T00:24:18.061Z,100373.53
2022-12-23T00:26:46.265Z,100365.56
2022-12-23T00:29:14.609Z,100378.00
2022-12-23T00:31:42.838Z,100364.69
2022-12-23T00:34:12.046Z,100361.19
2022-12-23T00:36:41.762Z,100363.41
2022-12-23T00:39:31.300Z,100360.00
2022-12-23T00:42:16.778Z,100358.38
2022-12-23T00:44:45.391Z,100354.16
2022-12-23T00:47:36.314Z,100355.00
2022-12-23T00:50:03.645Z,100347.09
2022-12-23T00:52:33.306Z,100338.38
2022-12-23T00:55:01.513Z,100331.22
2022-12-23T00:57:29.688Z,100336.44
2022-12-23T00:59:57.788Z,100342.19
2022-12-23T01:02:43.468Z,100334.72
2022-12-23T01:05:29.691Z,100334.25
2022-12-23T01:07:59.409Z,100329.94
2022-12-23T01:10:27.593Z,100325.28
2022-12-23T01:12:55.993Z,100320.16
2022-12-23T01:15:24.833Z,100318.59
2022-12-23T01:17:53.736Z,100325.28
2022-12-23T01:20:21.853Z,100318.50
2022-12-23T01:22:50.304Z,100320.69
2022-12-23T01:25:19.823Z,100312.75
2022-12-23T01:27:48.049Z,100311.06
2022-12-23T01:30:16.472Z,100304.75
2022-12-23T01:32:44.737Z,100303.19
2022-12-23T01:35:12.930Z,100294.22
2022-12-23T01:37:41.488Z,100292.31
2022-12-23T01:40:10.813Z,100298.13
2022-12-23T01:42:45.096Z,100288.97
2022-12-23T01:45:19.612Z,100294.56
2022-12-23T01:47:53.833Z,100295.38
2022-12-23T01:50:25.503Z,100290.19
2022-12-23T01:53:06.966Z,100291.03
2022-12-23T01:55:39.930Z,100285.47
2022-12-23T01:58:14.592Z,100290.16
2022-12-23T02:01:01.453Z,100283.47
2022-12-23T02:03:46.341Z,100285.38
2022-12-23T02:06:38.123Z,100273.69
2022-12-23T02:09:18.389Z,100280.69
2022-12-23T02:12:15.203Z,100275.81
2022-12-23T02:15:19.521Z,100271.00
2022-12-23T02:17:58.939Z,100269.28
2022-12-23T02:21:11.396Z,100273.78
2022-12-23T02:24:21.197Z,100275.91
2022-12-23T02:27:11.392Z,100282.25
2022-12-23T02:30:09.656Z,100272.75
2022-12-23T02:32:54.953Z,100268.50
2022-12-23T02:35:32.599Z,100270.88
2022-12-23T02:38:10.537Z,100276.97
2022-12-23T02:40:44.846Z,100273.06
2022-12-23T02:43:19.370Z,100264.88
2022-12-23T02:45:54.805Z,100271.38
2022-12-23T02:48:32.372Z,100267.31
2022-12-23T02:51:03.003Z,100265.63
2022-12-23T02:53:35.738Z,100266.22
2022-12-23T02:56:07.170Z,100266.81
2022-12-23T02:58:41.616Z,100265.75
2022-12-23T03:01:12.007Z,100275.56
2022-12-23T03:03:43.036Z,100256.81
2022-12-23T03:06:20.888Z,100259.22
2022-12-23T03:08:50.950Z,100261.09
2022-12-23T03:11:19.923Z,100253.41
2022-12-23T03:14:16.899Z,100261.09
2022-12-23T03:16:54.455Z,100255.94
2022-12-23T03:19:29.315Z,100254.53
2022-12-23T03:22:07.409Z,100260.84
2022-12-23T03:24:42.632Z,100256.09
2022-12-23T03:27:17.541Z,100254.69
2022-12-23T03:29:55.996Z,100256.47
2022-12-23T03:32:28.787Z,100260.25
2022-12-23T03:35:01.853Z,100261.34
2022-12-23T03:37:33.859Z,100254.22
2022-12-23T03:40:06.257Z,100250.72
2022-12-23T03:42:38.095Z,100244.91
2022-12-23T03:48:07.097Z,100244.50
2022-12-23T03:50:39.292Z,100245.34
2022-12-23T03:53:18.747Z,100252.97
2022-12-23T03:55:53.607Z,100245.69
2022-12-23T03:58:40.715Z,100245.94
2022-12-23T04:01:22.203Z,100244.75
2022-12-23T04:04:00.228Z,100242.38
2022-12-23T04:06:37.648Z,100244.19
2022-12-23T04:09:06.695Z,100242.22
2022-12-23T04:11:36.711Z,100234.88
2022-12-23T04:14:04.850Z,100246.53
2022-12-23T04:16:33.863Z,100243.78
2022-12-23T04:19:02.211Z,100249.97
2022-12-23T04:21:31.731Z,100248.78
2022-12-23T04:23:59.905Z,100252.53
2022-12-23T04:26:28.244Z,100261.31
2022-12-23T04:28:56.551Z,100253.66
2022-12-23T04:31:24.806Z,100259.81
2022-12-23T04:33:53.208Z,100264.84
2022-12-23T04:36:21.410Z,100265.38
2022-12-23T04:38:51.116Z,100264.88
2022-12-23T04:41:19.259Z,100262.47
2022-12-23T04:43:53.092Z,100270.16
2022-12-23T04:46:21.787Z,100261.19
2022-12-23T04:48:49.994Z,100268.09
2022-12-23T04:51:18.220Z,100260.47
2022-12-23T04:53:46.428Z,100259.66
2022-12-23T04:56:16.088Z,100268.06
2022-12-23T04:58:44.214Z,100256.94
2022-12-23T05:01:21.595Z,100258.03
2022-12-23T05:03:49.692Z,100260.13
2022-12-23T05:06:17.814Z,100264.88
2022-12-23T05:08:45.950Z,100256.22
2022-12-23T05:11:15.569Z,100268.78
2022-12-23T05:13:43.951Z,100268.84
2022-12-23T05:16:12.344Z,100272.06
2022-12-23T05:18:40.615Z,100271.88
2022-12-23T05:21:08.828Z,100271.44
2022-12-23T05:23:37.062Z,100266.97
2022-12-23T05:26:06.635Z,100274.06
2022-12-23T05:28:36.486Z,100271.16
2022-12-23T05:31:06.970Z,100273.81
2022-12-23T05:33:36.267Z,100274.44
2022-12-23T05:36:06.564Z,100280.84
2022-12-23T05:38:34.924Z,100280.84
2022-12-23T05:41:03.798Z,100272.91
2022-12-23T05:43:32.295Z,100280.09
2022-12-23T05:46:02.029Z,100270.84
2022-12-23T05:48:30.227Z,100272.22
2022-12-23T05:50:58.542Z,100267.69
2022-12-23T05:53:27.084Z,100271.41
2022-12-23T05:55:55.292Z,100270.88
2022-12-23T05:58:24.100Z,100265.56
2022-12-23T06:00:52.424Z,100268.97
2022-12-23T06:03:22.281Z,100270.53
2022-12-23T06:05:52.011Z,100267.38
2022-12-23T06:08:20.574Z,100271.09
2022-12-23T06:10:49.269Z,100269.75
2022-12-23T06:13:17.484Z,100276.63
2022-12-23T06:15:45.563Z,100274.22
2022-12-23T06:18:13.751Z,100271.81
2022-12-23T06:20:43.295Z,100280.56
2022-12-23T06:23:11.437Z,100271.50
2022-12-23T06:25:39.608Z,100282.41
2022-12-23T06:28:08.397Z,100278.16
2022-12-23T06:30:36.518Z,100278.34
2022-12-23T06:33:04.819Z,100271.91
2022-12-23T06:35:33.010Z,100280.63
2022-12-23T06:38:03.336Z,100279.94
2022-12-23T06:40:33.575Z,100281.91
2022-12-23T06:43:01.666Z,100284.44
2022-12-23T06:45:29.799Z,100289.59
2022-12-23T06:47:57.929Z,100293.38
2022-12-23T06:50:26.088Z,100287.41
2022-12-23T06:52:54.164Z,100297.38
2022-12-23T06:55:25.008Z,100289.63
2022-12-23T06:57:53.201Z,100289.44
2022-12-23T07:00:21.810Z,100297.78
2022-12-23T07:02:50.096Z,100293.97
2022-12-23T07:05:18.468Z,100297.56
2022-12-23T07:07:46.534Z,100296.88
2022-12-23T07:10:14.689Z,100294.56
2022-12-23T07:12:50.399Z,100291.81
2022-12-23T07:15:20.116Z,100285.50
2022-12-23T07:17:48.308Z,100287.50
2022-12-23T07:20:17.031Z,100290.66
2022-12-23T07:22:45.237Z,100281.59
2022-12-23T07:25:13.811Z,100272.50
2022-12-23T07:27:43.831Z,100275.91
2022-12-23T07:30:12.592Z,100279.84
2022-12-23T07:32:41.889Z,100278.41
2022-12-23T07:35:10.617Z,100285.28
2022-12-23T07:37:38.733Z,100281.94
2022-12-23T07:40:08.972Z,100284.03
2022-12-23T07:42:46.595Z,100289.53
2022-12-23T07:45:16.841Z,100286.13
2022-12-23T07:47:45.259Z,100286.75
2022-12-23T07:50:16.874Z,100281.31
2022-12-23T07:52:44.977Z,100282.56
2022-12-23T07:55:13.511Z,100283.00
2022-12-23T07:57:42.747Z,100286.16
2022-12-23T08:00:14.384Z,100289.03
2022-12-23T08:02:44.280Z,100289.53
2022-12-23T08:05:13.916Z,100288.13
2022-12-23T08:07:42.399Z,100291.41
2022-12-23T08:10:11.312Z,100291.56
2022-12-23T08:12:39.492Z,100282.34
2022-12-23T08:15:09.510Z,100281.63
2022-12-23T08:17:37.630Z,100284.28
2022-12-23T08:20:08.638Z,100281.34
2022-12-23T08:22:37.041Z,100278.38
2022-12-23T08:25:06.842Z,100278.06
2022-12-23T08:27:35.848Z,100273.63
2022-12-23T08:30:04.310Z,100273.53
2022-12-23T08:32:32.424Z,100270.84
2022-12-23T08:35:00.584Z,100262.94
2022-12-23T08:37:30.139Z,100267.03
2022-12-23T08:39:58.226Z,100266.78
2022-12-23T08:42:26.603Z,100262.28
2022-12-23T08:44:54.754Z,100264.66
2022-12-23T08:47:23.002Z,100256.22
2022-12-23T08:49:51.111Z,100255.44
2022-12-23T08:52:19.227Z,100248.34
2022-12-23T08:54:48.954Z,100245.75
2022-12-23T08:57:17.140Z,100246.84
2022-12-23T08:59:45.411Z,100241.81
2022-12-23T09:02:13.966Z,100246.56
2022-12-23T09:04:42.366Z,100240.56
2022-12-23T09:07:10.667Z,100235.31
2022-12-23T09:09:39.134Z,100236.44
2022-12-23T09:12:08.882Z,100229.16
2022-12-23T09:14:36.974Z,100226.91
2022-12-23T09:17:05.361Z,100231.31
2022-12-23T09:19:34.142Z,100223.63
2022-12-23T09:22:02.367Z,100221.47
2022-12-23T09:24:30.586Z,100216.41
2022-12-23T09:26:58.934Z,100223.03
2022-12-23T09:29:28.480Z,100214.63
2022-12-23T09:31:56.603Z,100216.84
2022-12-23T09:34:24.826Z,100213.47
2022-12-23T09:36:55.431Z,100209.38
2022-12-23T09:39:24.423Z,100204.84
2022-12-23T09:42:06.461Z,100193.19
2022-12-23T09:44:44.777Z,100196.41
2022-12-23T09:47:16.785Z,100197.81
2022-12-23T09:49:48.669Z,100200.94
2022-12-23T09:52:25.310Z,100202.50
2022-12-23T09:54:56.590Z,100195.16
2022-12-23T09:57:32.541Z,100201.66
2022-12-23T10:00:14.258Z,100196.31
2022-12-23T10:03:06.738Z,100187.91
2022-12-23T10:05:47.183Z,100187.91
2022-12-23T10:08:22.338Z,100189.38
2022-12-23T10:10:55.360Z,100190.84
2022-12-23T10:13:29.853Z,100189.13
2022-12-23T10:16:04.577Z,100177.91
2022-12-23T10:18:43.240Z,100173.59
2022-12-23T10:21:17.301Z,100173.78
2022-12-23T10:23:50.642Z,100171.78
2022-12-23T10:26:24.995Z,100180.16
2022-12-23T10:29:01.401Z,100173.47
2022-12-23T10:31:42.424Z,100171.28
2022-12-23T10:34:19.889Z,100164.31
2022-12-23T10:36:59.799Z,100168.13
2022-12-23T10:39:38.221Z,100161.50
2022-12-23T10:42:16.287Z,100155.84
2022-12-23T10:45:22.400Z,100161.50
2022-12-23T10:48:06.101Z,100161.22
2022-12-23T10:50:48.542Z,100154.13
2022-12-23T10:53:29.338Z,100155.72
2022-12-23T10:55:58.541Z,100155.22
2022-12-23T10:58:27.688Z,100163.44
2022-12-23T11:00:58.039Z,100160.13
2022-12-23T11:03:32.192Z,100159.78
2022-12-23T11:06:03.695Z,100161.53
2022-12-23T11:08:34.411Z,100160.91
2022-12-23T11:11:02.903Z,100153.31
2022-12-23T11:13:39.819Z,100148.44
2022-12-23T11:16:25.188Z,100154.91
2022-12-23T11:19:03.346Z,100157.47
2022-12-23T11:21:34.724Z,100154.44
2022-12-23T11:24:15.802Z,100147.66
2022-12-23T11:26:44.621Z,100151.75
2022-12-23T11:29:19.040Z,100155.38
2022-12-23T11:31:47.639Z,100155.53
2022-12-23T11:34:19.984Z,100155.69
2022-12-23T11:36:56.497Z,100154.28
2022-12-23T11:39:31.180Z,100151.13
2022-12-23T11:42:07.431Z,100145.13
2022-12-23T11:44:40.909Z,100151.78
2022-12-23T11:47:29.348Z,100147.66
2022-12-23T11:50:01.471Z,100147.66
2022-12-23T11:52:32.753Z,100149.53
2022-12-23T11:55:02.673Z,100143.69
2022-12-23T11:57:39.458Z,100157.75
2022-12-23T12:00:10.219Z,100158.53
2022-12-23T12:02:42.350Z,100154.06
2022-12-23T12:05:22.850Z,100154.56
2022-12-23T12:07:53.427Z,100152.03
2022-12-23T12:10:26.461Z,100140.94
2022-12-23T12:12:58.318Z,100148.63
2022-12-23T12:15:37.192Z,100144.50
2022-12-23T12:18:10.117Z,100141.69
2022-12-23T12:20:43.723Z,100143.81
2022-12-23T12:23:19.068Z,100146.19
2022-12-23T12:25:53.734Z,100146.03
2022-12-23T12:28:26.157Z,100146.66
2022-12-23T12:31:00.045Z,100152.28
2022-12-23T12:33:35.051Z,100150.97
2022-12-23T12:36:14.144Z,100157.72
2022-12-23T12:38:44.452Z,100149.06
2022-12-23T12:41:20.574Z,100158.28
2022-12-23T12:43:54.053Z,100153.84
2022-12-23T12:46:31.826Z,100166.56
2022-12-23T12:49:07.242Z,100170.00
2022-12-23T12:51:41.687Z,100171.75
2022-12-23T12:54:20.395Z,100167.31
2022-12-23T12:56:51.164Z,100170.47
2022-12-23T12:59:22.826Z,100169.63
2022-12-23T13:02:24.239Z,100174.44
2022-12-23T13:05:12.345Z,100172.66
2022-12-23T13:07:53.289Z,100179.84
2022-12-23T13:10:35.230Z,100175.44
2022-12-23T13:13:11.268Z,100177.63
2022-12-23T13:15:49.041Z,100173.50
2022-12-23T13:18:31.761Z,100181.34
2022-12-23T13:21:06.995Z,100175.50
2022-12-23T13:23:44.814Z,100179.56
2022-12-23T13:26:24.973Z,100177.00
2022-12-23T13:29:02.773Z,100173.31
2022-12-23T13:31:41.791Z,100173.94
2022-12-23T13:34:22.620Z,100172.59
2022-12-23T13:36:59.643Z,100177.81
2022-12-23T13:39:40.904Z,100182.00
2022-12-23T13:42:13.627Z,100184.56
2022-12-23T13:44:41.995Z,100186.88
2022-12-23T13:47:20.134Z,100193.13
2022-12-23T13:49:59.180Z,100194.19
2022-12-23T13:52:41.633Z,100195.97
2022-12-23T13:55:23.361Z,100190.63
2022-12-23T13:57:58.208Z,100188.25
2022-12-23T14:00:30.308Z,100196.06
2022-12-23T14:03:20.198Z,100190.41
2022-12-23T14:05:50.807Z,100189.22
2022-12-23T14:08:42.091Z,100192.59
2022-12-23T14:11:19.465Z,100188.63
2022-12-23T14:13:56.282Z,100180.41
2022-12-23T14:16:47.225Z,100184.59
2022-12-23T14:19:42.724Z,100185.84
2022-12-23T14:22:47.129Z,100188.44
2022-12-23T14:25:34.586Z,100194.97
2022-12-23T14:28:17.484Z,100188.63
2022-12-23T14:30:46.268Z,100191.00
2022-12-23T14:33:25.330Z,100199.41
2022-12-23T14:36:15.993Z,100202.16
2022-12-23T14:38:44.165Z,100202.63
2022-12-23T14:41:26.693Z,100197.88
2022-12-23T14:44:01.806Z,100206.84
2022-12-23T14:46:56.663Z,100210.03
2022-12-23T14:49:39.880Z,100203.19
2022-12-23T14:52:44.628Z,100199.56
2022-12-23T14:55:41.187Z,100206.97
2022-12-23T14:58:25.918Z,100201.69
2022-12-23T15:01:02.216Z,100205.47
2022-12-23T15:03:35.001Z,100200.72
2022-12-23T15:06:07.348Z,100217.31
2022-12-23T15:08:40.383Z,100217.84
2022-12-23T15:11:10.942Z,100219.53
2022-12-23T15:13:39.850Z,100218.16
2022-12-23T15:16:17.280Z,100214.06
2022-12-23T15:18:54.944Z,100216.19
2022-12-23T15:21:31.844Z,100219.44
2022-12-23T15:24:00.273Z,100220.03
2022-12-23T15:26:31.589Z,100216.56
2022-12-23T15:29:02.352Z,100210.94
2022-12-23T15:31:37.171Z,100224.88
2022-12-23T15:34:16.592Z,100231.34
2022-12-23T15:36:48.619Z,100235.19
2022-12-23T15:39:21.198Z,100234.75
2022-12-23T15:41:50.127Z,100229.41
2022-12-23T15:44:21.680Z,100235.59
2022-12-23T15:46:52.205Z,100236.47
2022-12-23T15:49:21.903Z,100238.97
2022-12-23T15:52:13.989Z,100239.81
2022-12-23T15:54:47.739Z,100241.88
2022-12-23T15:57:21.454Z,100238.59
2022-12-23T15:59:50.422Z,100227.88
2022-12-23T16:02:58.867Z,100232.56
2022-12-23T16:05:32.617Z,100228.94
2022-12-23T16:08:12.065Z,100228.22
2022-12-23T16:10:41.331Z,100238.66
2022-12-23T16:13:18.672Z,100231.78
2022-12-23T16:15:47.900Z,100236.47
2022-12-23T16:18:28.636Z,100237.03
2022-12-23T16:21:00.680Z,100235.16
2022-12-23T16:23:31.964Z,100240.47
2022-12-23T16:26:02.281Z,100241.31
2022-12-23T16:28:38.626Z,100244.53
2022-12-23T16:31:08.942Z,100246.13
2022-12-23T16:33:43.846Z,100245.09
2022-12-23T16:36:23.795Z,100245.66
2022-12-23T16:38:53.864Z,100246.28
2022-12-23T16:41:22.152Z,100248.44
2022-12-23T16:43:52.827Z,100251.69
2022-12-23T16:46:23.776Z,100249.66
2022-12-23T16:48:55.881Z,100253.16
2022-12-23T16:51:27.393Z,100256.16
2022-12-23T16:54:02.298Z,100256.50
2022-12-23T16:56:37.407Z,100255.47
2022-12-23T16:59:06.337Z,100251.50
2022-12-23T17:01:39.535Z,100251.75
2022-12-23T17:04:10.361Z,100257.34
2022-12-23T17:06:41.859Z,100250.97
2022-12-23T17:09:11.680Z,100253.69
2022-12-23T17:11:44.682Z,100248.66
2022-12-23T17:14:21.323Z,100253.44
2022-12-23T17:16:50.093Z,100247.56
2022-12-23T17:19:29.310Z,100247.28
2022-12-23T17:22:04.151Z,100248.06
2022-12-23T17:24:32.481Z,100243.34
2022-12-23T17:27:00.870Z,100251.63
2022-12-23T17:29:29.199Z,100251.13
2022-12-23T17:31:57.921Z,100242.38
2022-12-23T17:34:27.577Z,100254.34
2022-12-23T17:36:55.956Z,100252.78
2022-12-23T17:39:27.124Z,100254.38
2022-12-23T17:41:55.524Z,100247.72
2022-12-23T17:44:24.119Z,100246.13
2022-12-23T17:46:52.247Z,100250.41
2022-12-23T17:49:20.520Z,100246.97
2022-12-23T17:51:50.479Z,100251.22
2022-12-23T17:54:23.849Z,100252.28
2022-12-23T17:56:52.749Z,100246.19
2022-12-23T17:59:21.701Z,100252.56
2022-12-23T18:01:50.299Z,100252.84
2022-12-23T18:04:18.692Z,100256.28
2022-12-23T18:06:46.958Z,100261.03
2022-12-23T18:09:16.898Z,100252.03
2022-12-23T18:11:47.355Z,100261.06
2022-12-23T18:14:18.802Z,100253.88
2022-12-23T18:16:47.842Z,100257.06
2022-12-23T18:19:19.940Z,100254.41
2022-12-23T18:21:48.548Z,100263.16
2022-12-23T18:24:18.775Z,100256.00
2022-12-23T18:26:47.652Z,100259.19
2022-12-23T18:29:16.313Z,100259.13
2022-12-23T18:31:51.627Z,100257.56
2022-12-23T18:34:21.531Z,100256.50
2022-12-23T18:36:51.717Z,100260.75
2022-12-23T18:39:21.855Z,100271.41
2022-12-23T18:41:50.243Z,100265.81
2022-12-23T18:44:21.168Z,100260.78
2022-12-23T18:46:50.237Z,100260.78
2022-12-23T18:49:18.565Z,100271.66
2022-12-23T18:51:46.944Z,100269.03
2022-12-23T18:54:15.735Z,100260.53
2022-12-23T18:56:45.680Z,100263.44
2022-12-23T18:59:27.344Z,100260.78
2022-12-23T19:01:57.481Z,100258.13
2022-12-23T19:04:26.341Z,100264.22
2022-12-23T19:06:55.999Z,100264.75
2022-12-23T19:09:26.037Z,100273.75
2022-12-23T19:11:55.567Z,100262.31
2022-12-23T19:14:23.848Z,100271.34
2022-12-23T19:16:52.809Z,100263.38
2022-12-23T19:19:24.079Z,100262.88
2022-12-23T19:21:52.913Z,100265.25
2022-12-23T19:24:21.056Z,100274.56
2022-12-23T19:26:49.273Z,100268.44
2022-12-23T19:29:18.920Z,100273.75
2022-12-23T19:31:47.083Z,100267.09
2022-12-23T19:34:16.011Z,100272.72
2022-12-23T19:36:44.721Z,100263.44
2022-12-23T19:39:16.620Z,100273.00
2022-12-23T19:41:45.621Z,100283.88
2022-12-23T19:44:14.036Z,100288.38
2022-12-23T19:46:43.903Z,100285.19
2022-12-23T19:49:17.754Z,100284.38
2022-12-23T19:51:47.935Z,100283.59
2022-12-23T19:54:16.183Z,100279.84
2022-12-23T19:56:44.691Z,100280.41
2022-12-23T19:59:14.085Z,100279.84
2022-12-23T20:01:43.769Z,100279.06
2022-12-23T20:04:12.544Z,100284.91
2022-12-23T20:06:41.944Z,100281.47
2022-12-23T20:09:12.356Z,100269.56
2022-12-23T20:11:42.639Z,100275.38
2022-12-23T20:14:11.781Z,100268.75
2022-12-23T20:16:41.861Z,100279.34
2022-12-23T20:19:12.380Z,100275.91
2022-12-23T20:21:40.454Z,100272.72
2022-12-23T20:24:09.189Z,100278.81
2022-12-23T20:26:37.403Z,100279.34
2022-12-23T20:29:05.684Z,100279.06
2022-12-23T20:31:35.599Z,100283.34
2022-12-23T20:34:03.865Z,100284.66
2022-12-23T20:36:35.702Z,100281.75
2022-12-23T20:39:05.132Z,100275.91
2022-12-23T20:41:33.945Z,100282.00
2022-12-23T20:44:32.975Z,100273.78
2022-12-23T20:46:50.519Z,100275.66
2022-12-23T20:49:18.633Z,100276.97
2022-12-23T20:51:48.214Z,100271.38
2022-12-23T20:54:16.324Z,100269.19
2022-12-23T20:56:44.450Z,100268.88
2022-12-23T20:59:12.652Z,100274.97
2022-12-23T21:01:42.770Z,100271.03
2022-12-23T21:04:13.008Z,100270.47
2022-12-23T21:06:41.437Z,100271.00
2022-12-23T21:09:12.599Z,100272.09
2022-12-23T21:11:43.592Z,100261.19
2022-12-23T21:14:12.089Z,100260.13
2022-12-23T21:16:40.394Z,100249.78
2022-12-23T21:19:10.124Z,100257.50
2022-12-23T21:21:38.234Z,100258.59
2022-12-23T21:24:06.933Z,100254.31
2022-12-23T21:26:36.609Z,100254.84
2022-12-23T21:29:06.584Z,100246.56
2022-12-23T21:31:37.332Z,100236.94
2022-12-23T21:34:06.512Z,100245.94
2022-12-23T21:36:37.804Z,100240.38
2022-12-23T21:39:06.791Z,100244.69
2022-12-23T21:41:38.894Z,100239.09
2022-12-23T21:44:07.410Z,100234.34
2022-12-23T21:46:35.812Z,100228.81
2022-12-23T21:49:04.401Z,100224.50
2022-12-23T21:51:41.928Z,100220.81
2022-12-23T21:54:11.125Z,100220.25
2022-12-23T21:56:41.863Z,100223.22
2022-12-23T21:59:13.586Z,100222.69
2022-12-23T22:01:42.305Z,100218.19
2022-12-23T22:04:10.701Z,100220.06
2022-12-23T22:06:41.389Z,100219.31
2022-12-23T22:09:11.795Z,100222.50
2022-12-23T22:11:41.431Z,100223.31
2022-12-23T22:14:12.809Z,100219.31
2022-12-23T22:16:40.969Z,100222.03
2022-12-23T22:19:09.870Z,100222.81
2022-12-23T22:21:39.776Z,100209.84
2022-12-23T22:24:08.570Z,100213.59
2022-12-23T22:26:37.001Z,100215.44
2022-12-23T22:29:07.730Z,100214.38
2022-12-23T22:31:40.090Z,100212.78
2022-12-23T22:34:10.326Z,100216.78
2022-12-23T22:36:38.518Z,100219.94
2022-12-23T22:39:07.998Z,100223.63
2022-12-23T22:41:36.713Z,100221.25
2022-12-23T22:44:06.547Z,100227.09
2022-12-23T22:46:34.725Z,100213.28
2022-12-23T22:49:02.772Z,100217.31
2022-12-23T22:51:32.591Z,100218.88
2022-12-23T22:54:03.597Z,100214.34
2022-12-23T22:56:31.815Z,100212.22
2022-12-23T22:58:59.934Z,100207.44
2022-12-23T23:01:31.812Z,100203.75
2022-12-23T23:04:01.326Z,100201.34
2022-12-23T23:06:31.753Z,100206.13
2022-12-23T23:09:00.094Z,100204.25
2022-12-23T23:11:29.045Z,100209.28
2022-12-23T23:13:57.219Z,100202.34
2022-12-23T23:16:26.398Z,100207.06
2022-12-23T23:18:56.432Z,100207.28
2022-12-23T23:21:24.600Z,100209.69
2022-12-23T23:23:52.887Z,100212.38
2022-12-23T23:26:21.962Z,100218.28
2022-12-23T23:28:50.251Z,100215.88
2022-12-23T23:34:08.016Z,100219.34
2022-12-23T23:36:36.180Z,100220.94
2022-12-23T23:39:04.351Z,100220.44
2022-12-23T23:41:32.997Z,100218.81
2022-12-23T23:44:01.124Z,100221.50
2022-12-23T23:46:30.745Z,100219.13
2022-12-23T23:48:58.982Z,100215.13
2022-12-23T23:51:28.903Z,100219.09
2022-12-23T23:53:57.153Z,100220.47
2022-12-23T23:56:27.288Z,100218.34
2022-12-23T23:58:57.092Z,100219.91
